Time;durP1;ratioP1;P1;durP2;ratioP2;P2;SDS_P1;SDS_P2;PMS_P1;PMS_P2;Temp;Humidity;BMP_temperature;BMP_pressure;BME280_temperature;BME280_humidity;BME280_pressure;Samples;Min_cycle;Max_cycle;Signal;HPM_P1;HPM_P2
2024/02/04 06:15:59;;;;;;;;;74.33;58.33;;;;;;;;5813209;23;9582;-74
2024/02/04 06:18:24;;;;;;;;;70.00;55.67;;;;;;;;4988785;28;8838;-74
2024/02/04 06:20:49;;;;;;;;;72.33;58.33;;;;;;;;4990402;28;8783;-74
2024/02/04 06:23:15;;;;;;;;;72.33;57.00;;;;;;;;4990409;28;8838;-74
2024/02/04 06:25:40;;;;;;;;;74.33;60.33;;;;;;;;4990565;28;8853;-74
2024/02/04 06:28:06;;;;;;;;;74.67;60.67;;;;;;;;4990435;28;8824;-74
2024/02/04 06:30:32;;;;;;;;;74.00;56.00;;;;;;;;4990423;28;8788;-74
2024/02/04 06:32:57;;;;;;;;;79.00;63.00;;;;;;;;4990240;28;8787;-74
2024/02/04 06:35:22;;;;;;;;;72.33;59.67;;;;;;;;4990388;28;8812;-74
2024/02/04 06:37:47;;;;;;;;;77.67;61.00;;;;;;;;4990618;28;8881;-74
2024/02/04 06:40:12;;;;;;;;;67.00;52.33;;;;;;;;4990808;28;8807;-76
2024/02/04 06:42:38;;;;;;;;;75.33;60.67;;;;;;;;4993103;28;8803;-75
2024/02/04 06:45:03;;;;;;;;;74.67;59.33;;;;;;;;4994314;28;8936;-76
2024/02/04 06:47:29;;;;;;;;;77.67;61.33;;;;;;;;4997626;28;8799;-74
2024/02/04 06:49:54;;;;;;;;;79.00;60.00;;;;;;;;4993976;28;8797;-74
2024/02/04 06:52:19;;;;;;;;;82.25;63.75;;;;;;;;4994236;28;8785;-73
2024/02/04 06:54:44;;;;;;;;;82.50;65.00;;;;;;;;4994181;28;8809;-73
2024/02/04 06:57:10;;;;;;;;;80.75;64.75;;;;;;;;4994302;28;8808;-74
2024/02/04 06:59:35;;;;;;;;;83.00;66.00;;;;;;;;4994111;28;8805;-75
2024/02/04 07:02:00;;;;;;;;;85.25;66.75;;;;;;;;4994058;28;8821;-82
2024/02/04 07:04:25;;;;;;;;;84.75;66.75;;;;;;;;4993379;28;8942;-79
2024/02/04 07:06:51;;;;;;;;;82.50;64.50;;;;;;;;4993873;28;8810;-76
2024/02/04 07:09:17;;;;;;;;;80.00;63.50;;;;;;;;4992738;28;8854;-77
2024/02/04 07:11:42;;;;;;;;;81.75;63.50;;;;;;;;4993966;28;8799;-75
2024/02/04 07:14:08;;;;;;;;;82.50;64.50;;;;;;;;4993777;28;8807;-75
2024/02/04 07:16:33;;;;;;;;;87.75;66.75;;;;;;;;4991755;28;8843;-77
2024/02/04 07:18:59;;;;;;;;;86.00;65.25;;;;;;;;4988700;28;8833;-77
2024/02/04 07:21:24;;;;;;;;;80.50;63.25;;;;;;;;4992179;28;8810;-76
2024/02/04 07:23:49;;;;;;;;;79.00;64.00;;;;;;;;4993177;28;8791;-78
2024/02/04 07:26:14;;;;;;;;;77.33;61.33;;;;;;;;4992916;28;8825;-78
2024/02/04 07:28:40;;;;;;;;;83.67;63.33;;;;;;;;4992932;28;8794;-77
2024/02/04 07:31:05;;;;;;;;;79.25;62.25;;;;;;;;4993711;28;8887;-76
2024/02/04 07:33:30;;;;;;;;;86.67;63.67;;;;;;;;4993429;28;8798;-75
2024/02/04 07:35:55;;;;;;;;;70.67;58.33;;;;;;;;4993344;28;8809;-75
2024/02/04 07:38:21;;;;;;;;;80.67;63.33;;;;;;;;4991079;28;8817;-75
2024/02/04 07:40:46;;;;;;;;;76.33;60.33;;;;;;;;4992260;28;9574;-75
2024/02/04 07:43:11;;;;;;;;;70.67;56.67;;;;;;;;4992329;28;8924;-75
2024/02/04 07:45:37;;;;;;;;;84.67;65.00;;;;;;;;4992010;28;8853;-76
2024/02/04 07:48:03;;;;;;;;;80.67;62.67;;;;;;;;5005716;28;8795;-75
2024/02/04 07:50:28;;;;;;;;;61.00;43.75;;;;;;;;5011647;28;8857;-75
2024/02/04 07:52:53;;;;;;;;;79.67;62.33;;;;;;;;5012343;28;8883;-75
2024/02/04 07:55:19;;;;;;;;;75.33;59.33;;;;;;;;5012525;28;9516;-75
2024/02/04 07:57:44;;;;;;;;;77.00;61.00;;;;;;;;5012605;28;8791;-75
2024/02/04 08:00:12;;;;;;;;;73.67;59.67;;;;;;;;5012649;28;8779;-75
2024/02/04 08:02:38;;;;;;;;;74.33;61.00;;;;;;;;5012381;28;8806;-75
2024/02/04 08:05:06;;;;;;;;;78.67;63.00;;;;;;;;5011215;28;9571;-78
2024/02/04 08:07:32;;;;;;;;;78.33;59.33;;;;;;;;5011655;28;9520;-77
2024/02/04 11:50:07;;;;;;;;;90.00;80.25;;;;;;;;5166980;27;13372;-73
2024/02/04 11:52:33;;;;;;;;;87.25;66.50;;;;;;;;5136094;27;12100;-74
2024/02/04 11:54:58;;;;;;;;;85.75;66.00;;;;;;;;5107388;28;8946;-75
2024/02/04 11:57:23;;;;;;;;;81.00;65.00;;;;;;;;5108206;28;8792;-73
2024/02/04 11:59:50;;;;;;;;;82.00;63.33;;;;;;;;5107000;28;9568;-74
2024/02/04 12:02:16;;;;;;;;;80.33;63.67;;;;;;;;5101158;28;8814;-73
2024/02/04 12:04:41;;;;;;;;;78.00;62.33;;;;;;;;5096389;28;9563;-75
2024/02/04 12:07:08;;;;;;;;;81.00;63.67;;;;;;;;5085836;28;8802;-77
2024/02/04 12:09:34;;;;;;;;;81.00;62.67;;;;;;;;5084773;28;8846;-78
2024/02/04 12:11:59;;;;;;;;;81.67;63.67;;;;;;;;5085583;28;8795;-75
2024/02/04 12:14:24;;;;;;;;;77.33;59.33;;;;;;;;5087142;28;8782;-75
2024/02/04 12:16:50;;;;;;;;;73.33;59.00;;;;;;;;5091833;28;8944;-75
2024/02/04 12:19:15;;;;;;;;;76.67;60.00;;;;;;;;5107475;28;8843;-75
2024/02/04 12:21:40;;;;;;;;;75.00;59.67;;;;;;;;5107852;28;9620;-74
2024/02/04 12:24:07;;;;;;;;;76.67;60.33;;;;;;;;5108076;28;8768;-75
2024/02/04 12:26:32;;;;;;;;;75.00;59.67;;;;;;;;5106651;28;8811;-75
2024/02/04 12:28:58;;;;;;;;;78.00;62.00;;;;;;;;5123591;28;8832;-74
2024/02/04 12:31:31;;;;;;;;;75.33;60.67;;;;;;;;5107914;28;8788;-76
2024/02/04 12:34:00;;;;;;;;;76.67;60.67;;;;;;;;5107823;28;8807;-76
2024/02/04 12:36:27;;;;;;;;;74.00;60.33;;;;;;;;5107892;28;8824;-76
2024/02/04 12:38:55;;;;;;;;;71.33;57.67;;;;;;;;5108102;28;8788;-77
2024/02/04 12:41:22;;;;;;;;;79.33;63.00;;;;;;;;5107812;28;8792;-74
2024/02/04 12:43:53;;;;;;;;;74.67;59.33;;;;;;;;5106467;28;8792;-75
2024/02/04 12:46:19;;;;;;;;;77.67;62.00;;;;;;;;5107550;28;8803;-75
2024/02/04 12:48:44;;;;;;;;;75.33;60.33;;;;;;;;5105905;28;8840;-75
2024/02/04 12:51:11;;;;;;;;;74.00;58.00;;;;;;;;5107494;28;8811;-76
2024/02/04 12:53:36;;;;;;;;;80.33;60.00;;;;;;;;5107425;28;8791;-76
2024/02/04 12:56:01;;;;;;;;;75.67;60.67;;;;;;;;5107467;28;8822;-76
2024/02/04 12:58:27;;;;;;;;;80.00;63.00;;;;;;;;5107403;28;9607;-76
2024/02/04 13:01:02;;;;;;;;;72.67;58.00;;;;;;;;5096933;28;8882;-76
2024/02/04 13:03:27;;;;;;;;;76.67;59.33;;;;;;;;5093629;28;8830;-77
2024/02/04 13:05:57;;;;;;;;;68.67;55.67;;;;;;;;5093762;28;8792;-76
2024/02/04 13:08:22;;;;;;;;;74.33;58.33;;;;;;;;5093549;28;8804;-76
2024/02/04 13:10:53;;;;;;;;;72.00;58.67;;;;;;;;5093567;28;8780;-77
2024/02/04 13:13:18;;;;;;;;;75.00;59.00;;;;;;;;5093383;28;8796;-76
2024/02/04 13:15:44;;;;;;;;;72.67;58.00;;;;;;;;5092142;28;8822;-76
2024/02/04 13:18:15;;;;;;;;;72.67;57.67;;;;;;;;5093861;28;8804;-76
2024/02/04 13:20:41;;;;;;;;;74.00;59.00;;;;;;;;5093493;28;9501;-76
2024/02/04 13:23:06;;;;;;;;;67.00;54.33;;;;;;;;5093304;28;8768;-76
2024/02/04 13:25:32;;;;;;;;;71.67;58.67;;;;;;;;5093161;28;8788;-76
2024/02/04 13:27:57;;;;;;;;;71.67;55.33;;;;;;;;5092973;28;8780;-76
2024/02/04 13:30:23;;;;;;;;;72.00;56.33;;;;;;;;5093107;28;8861;-76
2024/02/04 13:32:48;;;;;;;;;72.00;57.33;;;;;;;;5091891;28;8931;-76
2024/02/04 13:35:15;;;;;;;;;65.33;52.33;;;;;;;;5093087;28;8803;-76
2024/02/04 13:37:46;;;;;;;;;69.00;56.00;;;;;;;;5093006;28;9505;-77
2024/02/04 13:40:13;;;;;;;;;65.33;52.67;;;;;;;;5092903;28;11492;-76
2024/02/04 13:42:38;;;;;;;;;63.75;52.00;;;;;;;;5092009;28;11524;-77
2024/02/04 13:45:04;;;;;;;;;63.00;51.25;;;;;;;;5082705;28;12213;-77
2024/02/04 13:47:29;;;;;;;;;63.25;50.25;;;;;;;;5092531;28;9540;-77
2024/02/04 13:49:55;;;;;;;;;23.25;14.50;;;;;;;;5092570;28;8844;-77
2024/02/04 13:52:21;;;;;;;;;64.00;50.25;;;;;;;;5092610;28;8820;-74
2024/02/04 13:54:46;;;;;;;;;68.00;53.67;;;;;;;;5092485;28;8803;-74
2024/02/04 13:57:11;;;;;;;;;65.50;52.25;;;;;;;;5090965;28;8930;-77
2024/02/04 13:59:37;;;;;;;;;63.25;50.25;;;;;;;;5092483;28;8796;-77
2024/02/04 14:02:02;;;;;;;;;60.25;49.75;;;;;;;;5092667;28;8898;-77
2024/02/04 14:04:27;;;;;;;;;59.25;50.00;;;;;;;;5092421;28;8828;-77
2024/02/04 14:06:53;;;;;;;;;64.50;52.00;;;;;;;;5092240;28;8900;-78
2024/02/04 14:09:18;;;;;;;;;54.00;42.75;;;;;;;;5092142;28;8823;-77
2024/02/04 14:11:43;;;;;;;;;61.50;52.00;;;;;;;;5091071;28;8822;-77
2024/02/04 14:14:08;;;;;;;;;61.50;48.00;;;;;;;;5092133;28;8779;-77
2024/02/04 14:16:34;;;;;;;;;56.00;47.00;;;;;;;;5092599;28;8843;-77
2024/02/04 14:18:59;;;;;;;;;52.00;43.50;;;;;;;;5091959;28;8827;-77
2024/02/04 14:21:24;;;;;;;;;52.00;44.25;;;;;;;;5092042;28;9758;-77
2024/02/04 14:23:50;;;;;;;;;54.50;44.75;;;;;;;;5090711;28;8942;-77
2024/02/04 14:26:18;;;;;;;;;54.75;46.00;;;;;;;;5091877;28;8776;-77
2024/02/04 14:28:44;;;;;;;;;55.25;46.25;;;;;;;;5091856;28;8900;-77
2024/02/04 14:31:09;;;;;;;;;53.00;46.00;;;;;;;;5091830;28;11509;-77
2024/02/04 14:33:34;;;;;;;;;60.00;47.00;;;;;;;;5091607;28;8792;-75
2024/02/04 14:36:03;;;;;;;;;54.75;43.25;;;;;;;;5091659;28;8784;-75
2024/02/04 14:38:29;;;;;;;;;49.00;41.00;;;;;;;;5092150;28;8804;-75
2024/02/04 14:40:55;;;;;;;;;40.75;35.75;;;;;;;;5091499;28;12302;-75
2024/02/04 14:43:23;;;;;;;;;53.50;40.50;;;;;;;;5091420;28;11502;-76
2024/02/04 14:45:48;;;;;;;;;53.00;42.25;;;;;;;;5091450;28;8780;-76
2024/02/04 14:48:13;;;;;;;;;47.75;41.25;;;;;;;;5091029;28;11636;-76
2024/02/04 14:50:39;;;;;;;;;52.50;42.00;;;;;;;;5091762;28;8811;-76
2024/02/04 14:53:05;;;;;;;;;52.25;43.00;;;;;;;;5090226;28;8868;-76
2024/02/04 14:55:30;;;;;;;;;55.00;43.75;;;;;;;;5091275;28;8784;-76
2024/02/04 14:57:55;;;;;;;;;51.00;42.25;;;;;;;;5089403;28;8896;-75
2024/02/04 15:00:24;;;;;;;;;55.50;45.25;;;;;;;;5080994;28;8834;-74
2024/02/04 15:02:49;;;;;;;;;46.25;40.75;;;;;;;;5079291;28;8832;-76
2024/02/04 15:05:15;;;;;;;;;38.25;37.50;;;;;;;;5090994;28;12317;-75
2024/02/04 15:07:41;;;;;;;;;42.50;38.00;;;;;;;;5091186;28;9506;-75
2024/02/04 15:10:07;;;;;;;;;35.50;34.00;;;;;;;;5090860;28;8854;-75
2024/02/04 15:12:32;;;;;;;;;43.00;38.75;;;;;;;;5089864;28;9561;-75
2024/02/04 15:14:57;;;;;;;;;42.75;36.50;;;;;;;;5090921;28;8868;-75
2024/02/04 15:17:23;;;;;;;;;38.25;31.50;;;;;;;;5090663;28;8792;-74
2024/02/04 15:19:48;;;;;;;;;41.00;38.25;;;;;;;;5082365;28;8830;-77
2024/02/04 15:22:14;;;;;;;;;42.50;38.25;;;;;;;;5073887;28;8831;-76
2024/02/04 15:24:39;;;;;;;;;39.00;35.25;;;;;;;;5081021;28;8816;-74
2024/02/04 15:27:05;;;;;;;;;42.75;39.25;;;;;;;;5079773;28;8907;-73
2024/02/04 15:29:35;;;;;;;;;44.00;39.50;;;;;;;;5084328;28;8999;-76
2024/02/04 15:32:01;;;;;;;;;43.50;34.75;;;;;;;;5084940;28;11527;-73
2024/02/04 15:34:31;;;;;;;;;45.75;35.25;;;;;;;;5104903;28;11505;-73
2024/02/04 15:36:56;;;;;;;;;42.50;40.00;;;;;;;;5089382;28;8784;-73
2024/02/04 15:39:21;;;;;;;;;37.00;36.00;;;;;;;;5077473;28;11537;-75
2024/02/04 15:41:47;;;;;;;;;43.00;39.00;;;;;;;;5069827;28;8803;-74
2024/02/04 15:44:13;;;;;;;;;40.25;33.75;;;;;;;;5089648;28;8788;-74
2024/02/04 15:46:38;;;;;;;;;43.75;35.50;;;;;;;;5089295;28;8814;-74
2024/02/04 15:49:09;;;;;;;;;36.00;35.00;;;;;;;;5088525;28;8860;-74
2024/02/04 15:51:35;;;;;;;;;42.50;36.00;;;;;;;;5090806;28;8788;-74
2024/02/04 15:54:00;;;;;;;;;46.00;40.00;;;;;;;;5087311;28;11544;-74
2024/02/04 15:56:29;;;;;;;;;38.25;30.25;;;;;;;;5089169;28;8804;-75
2024/02/04 15:59:09;;;;;;;;;39.75;36.25;;;;;;;;5087484;28;8846;-74
2024/02/04 16:01:35;;;;;;;;;39.00;34.75;;;;;;;;5089102;28;11672;-74
2024/02/04 16:04:01;;;;;;;;;48.50;39.00;;;;;;;;5087905;28;11511;-74
2024/02/04 16:06:26;;;;;;;;;51.00;41.00;;;;;;;;5090154;28;11490;-75
2024/02/04 16:08:51;;;;;;;;;44.50;39.00;;;;;;;;5089542;28;8831;-75
2024/02/04 16:11:19;;;;;;;;;44.25;39.25;;;;;;;;5090439;28;8816;-75
2024/02/04 16:13:47;;;;;;;;;43.00;35.50;;;;;;;;5082330;28;8814;-75
2024/02/04 16:16:19;;;;;;;;;43.25;37.25;;;;;;;;5068569;28;11556;-75
2024/02/04 16:18:45;;;;;;;;;31.75;28.50;;;;;;;;5089244;28;11476;-74
2024/02/04 16:21:10;;;;;;;;;43.00;32.50;;;;;;;;5090318;28;11489;-75
2024/02/04 16:23:36;;;;;;;;;36.25;33.50;;;;;;;;5085730;28;8772;-75
2024/02/04 16:26:01;;;;;;;;;41.00;37.75;;;;;;;;5090381;28;8788;-72
2024/02/04 16:28:26;;;;;;;;;45.00;40.75;;;;;;;;5088503;28;8823;-74
2024/02/04 16:30:52;;;;;;;;;50.50;41.00;;;;;;;;5089694;28;8796;-74
2024/02/04 16:33:17;;;;;;;;;48.75;38.00;;;;;;;;5085556;28;8800;-72
2024/02/04 16:35:42;;;;;;;;;40.50;35.50;;;;;;;;5091894;28;9509;-72
2024/02/04 16:38:08;;;;;;;;;40.75;35.75;;;;;;;;5093982;28;8821;-74
2024/02/04 16:40:33;;;;;;;;;41.50;36.75;;;;;;;;5093687;28;8784;-74
2024/02/04 16:42:58;;;;;;;;;41.25;34.50;;;;;;;;5089689;28;8812;-73
2024/02/04 16:45:24;;;;;;;;;8.00;2.00;;;;;;;;5092474;28;8808;-74
2024/02/04 16:47:49;;;;;;;;;34.75;28.25;;;;;;;;5092467;28;8845;-74
2024/02/04 16:50:14;;;;;;;;;40.00;33.75;;;;;;;;5089561;28;8855;-74
2024/02/04 16:52:40;;;;;;;;;39.50;35.50;;;;;;;;5090960;28;8816;-74
2024/02/04 16:55:05;;;;;;;;;30.50;26.25;;;;;;;;5091562;28;8787;-73
2024/02/04 16:57:31;;;;;;;;;27.75;26.50;;;;;;;;5092175;28;8830;-72
2024/02/04 16:59:56;;;;;;;;;36.00;34.25;;;;;;;;5092099;28;8804;-73
2024/02/04 17:02:22;;;;;;;;;40.75;38.00;;;;;;;;5079271;28;8915;-74
2024/02/04 17:04:50;;;;;;;;;40.00;32.50;;;;;;;;5081042;28;9597;-74
2024/02/04 17:07:16;;;;;;;;;39.00;28.00;;;;;;;;5076377;28;11633;-74
2024/02/04 17:09:41;;;;;;;;;38.25;36.25;;;;;;;;5073185;28;11582;-74
2024/02/04 17:12:07;;;;;;;;;28.50;28.00;;;;;;;;5073079;28;12271;-72
2024/02/04 17:14:34;;;;;;;;;40.25;38.25;;;;;;;;5073196;28;8782;-72
2024/02/04 17:17:13;;;;;;;;;45.25;39.00;;;;;;;;5078001;28;11531;-73
2024/02/04 17:20:04;;;;;;;;;44.00;36.50;;;;;;;;5093149;28;11507;-72
2024/02/04 17:22:30;;;;;;;;;35.75;30.25;;;;;;;;5093182;28;11506;-73
2024/02/04 17:24:59;;;;;;;;;38.50;34.25;;;;;;;;5092968;28;11544;-72
2024/02/04 17:27:25;;;;;;;;;35.75;32.25;;;;;;;;5084119;28;11539;-72
2024/02/04 17:29:52;;;;;;;;;39.00;31.50;;;;;;;;5092978;28;11556;-72
2024/02/04 17:32:25;;;;;;;;;37.00;30.75;;;;;;;;5092887;28;8918;-72
2024/02/04 17:34:50;;;;;;;;;42.75;39.00;;;;;;;;5092667;28;11535;-72
2024/02/04 17:37:15;;;;;;;;;44.50;38.25;;;;;;;;5090384;28;11507;-72
2024/02/04 17:39:41;;;;;;;;;37.75;31.75;;;;;;;;5075575;28;8876;-72
2024/02/04 17:42:08;;;;;;;;;40.25;36.00;;;;;;;;5072624;28;8891;-73
2024/02/04 17:44:34;;;;;;;;;40.25;35.25;;;;;;;;5072732;28;8851;-72
2024/02/04 17:46:59;;;;;;;;;44.75;39.00;;;;;;;;5085952;28;11537;-72
2024/02/04 17:49:24;;;;;;;;;44.50;39.50;;;;;;;;5090069;28;8832;-72
2024/02/04 17:51:49;;;;;;;;;40.25;38.00;;;;;;;;5091910;28;8877;-71
2024/02/04 17:54:15;;;;;;;;;38.75;36.25;;;;;;;;5091142;28;8946;-72
2024/02/04 17:56:40;;;;;;;;;41.75;38.50;;;;;;;;5090049;28;8792;-72
2024/02/04 17:59:06;;;;;;;;;37.25;35.75;;;;;;;;5092542;28;9513;-72
2024/02/04 18:01:32;;;;;;;;;43.00;39.25;;;;;;;;5092670;28;8926;-73
2024/02/04 18:03:57;;;;;;;;;32.25;27.50;;;;;;;;5092400;28;11636;-73
2024/02/04 18:06:22;;;;;;;;;50.50;43.00;;;;;;;;5087925;28;8824;-73
2024/02/04 18:08:48;;;;;;;;;41.50;38.50;;;;;;;;5092352;28;8835;-74
2024/02/04 18:11:17;;;;;;;;;44.50;41.00;;;;;;;;5092291;28;8780;-73
2024/02/04 18:13:43;;;;;;;;;49.00;41.25;;;;;;;;5092362;28;8815;-73
2024/02/04 18:16:09;;;;;;;;;43.00;41.00;;;;;;;;5091969;28;11508;-74
2024/02/04 18:18:34;;;;;;;;;49.00;41.75;;;;;;;;5088574;28;11502;-73
2024/02/04 18:20:59;;;;;;;;;50.00;43.00;;;;;;;;5092239;28;8792;-74
2024/02/04 18:23:24;;;;;;;;;57.50;47.50;;;;;;;;5092244;28;8783;-73
2024/02/04 18:25:50;;;;;;;;;57.50;46.00;;;;;;;;5091126;28;8903;-73
2024/02/04 18:28:15;;;;;;;;;59.75;47.75;;;;;;;;5082563;28;8932;-73
2024/02/04 18:30:40;;;;;;;;;58.00;46.00;;;;;;;;5074146;28;8791;-72
2024/02/04 18:33:05;;;;;;;;;53.25;43.50;;;;;;;;5071553;28;8787;-72
2024/02/04 18:35:31;;;;;;;;;56.75;45.25;;;;;;;;5071617;28;8783;-72
2024/02/04 18:37:57;;;;;;;;;50.00;41.00;;;;;;;;5087467;28;8892;-72
2024/02/04 18:40:22;;;;;;;;;46.00;42.00;;;;;;;;5078185;28;9695;-72
2024/02/04 18:42:47;;;;;;;;;54.50;46.00;;;;;;;;5071491;28;8775;-73
2024/02/04 18:45:13;;;;;;;;;47.75;41.00;;;;;;;;5071382;28;8782;-73
2024/02/04 18:47:38;;;;;;;;;54.75;44.75;;;;;;;;5082616;28;8820;-73
2024/02/04 18:50:04;;;;;;;;;53.75;43.00;;;;;;;;5091394;28;8844;-73
2024/02/04 18:52:29;;;;;;;;;53.75;42.25;;;;;;;;5091535;28;8804;-75
2024/02/04 18:54:55;;;;;;;;;60.50;45.75;;;;;;;;5091252;28;8792;-77
2024/02/04 18:57:20;;;;;;;;;49.25;42.25;;;;;;;;5079970;28;8837;-76
2024/02/04 18:59:46;;;;;;;;;50.75;43.75;;;;;;;;5070944;28;11535;-78
2024/02/04 19:02:11;;;;;;;;;52.75;46.00;;;;;;;;5069765;28;9015;-76
2024/02/04 19:04:36;;;;;;;;;60.00;47.25;;;;;;;;5070675;28;8817;-75
2024/02/04 19:07:01;;;;;;;;;61.50;48.25;;;;;;;;5072235;28;8826;-75
2024/02/04 19:09:27;;;;;;;;;63.00;52.00;;;;;;;;5070593;28;8846;-74
2024/02/04 19:11:53;;;;;;;;;62.25;49.00;;;;;;;;5070882;28;8775;-73
2024/02/04 19:14:20;;;;;;;;;56.00;46.25;;;;;;;;5071123;28;8879;-74
2024/02/04 19:16:45;;;;;;;;;60.50;49.00;;;;;;;;5074066;28;8824;-73
2024/02/04 19:19:10;;;;;;;;;61.75;50.00;;;;;;;;5089807;28;11552;-74
2024/02/04 19:21:45;;;;;;;;;61.75;51.00;;;;;;;;5089140;28;8900;-73
2024/02/04 19:24:11;;;;;;;;;58.75;49.25;;;;;;;;5090787;28;8968;-74
2024/02/04 19:26:36;;;;;;;;;57.50;47.00;;;;;;;;5084535;28;11519;-74
2024/02/04 19:29:02;;;;;;;;;57.00;46.25;;;;;;;;5088761;28;8860;-74
2024/02/04 19:31:27;;;;;;;;;54.25;45.25;;;;;;;;5090482;28;8804;-73
2024/02/04 19:33:52;;;;;;;;;54.75;46.00;;;;;;;;5080527;28;8926;-76
2024/02/04 19:36:18;;;;;;;;;57.50;45.00;;;;;;;;5087736;28;8888;-73
2024/02/04 19:38:43;;;;;;;;;60.25;48.75;;;;;;;;5080877;28;8897;-73
2024/02/04 19:41:08;;;;;;;;;57.25;47.25;;;;;;;;5090149;28;8816;-73
2024/02/04 19:43:34;;;;;;;;;58.50;48.00;;;;;;;;5090174;28;8795;-74
2024/02/04 19:45:59;;;;;;;;;57.75;47.25;;;;;;;;5088813;28;8780;-74
2024/02/04 19:48:25;;;;;;;;;61.75;50.25;;;;;;;;5085285;28;9562;-73
2024/02/04 19:50:50;;;;;;;;;57.75;46.50;;;;;;;;5090223;28;8895;-77
2024/02/04 19:53:16;;;;;;;;;61.00;49.00;;;;;;;;5089635;28;12365;-80
2024/02/04 19:55:41;;;;;;;;;60.25;49.00;;;;;;;;5090073;28;8780;-74
2024/02/04 19:58:06;;;;;;;;;62.00;50.00;;;;;;;;5084998;28;8800;-75
2024/02/04 20:00:32;;;;;;;;;59.25;46.50;;;;;;;;5089111;28;8761;-75
2024/02/04 20:02:58;;;;;;;;;60.25;49.50;;;;;;;;5089546;28;8808;-74
2024/02/04 20:05:24;;;;;;;;;58.00;48.75;;;;;;;;5089741;28;8800;-73
2024/02/04 20:07:50;;;;;;;;;46.25;40.50;;;;;;;;5084434;28;11621;-74
2024/02/04 20:10:15;;;;;;;;;48.50;42.50;;;;;;;;5080948;28;11609;-74
2024/02/04 20:12:40;;;;;;;;;61.25;46.75;;;;;;;;5093766;28;8815;-74
2024/02/04 20:15:05;;;;;;;;;63.50;51.75;;;;;;;;5092188;28;8865;-73
2024/02/04 20:17:31;;;;;;;;;45.75;38.25;;;;;;;;5088496;28;8776;-74
2024/02/04 20:19:58;;;;;;;;;61.50;49.00;;;;;;;;5093818;28;8820;-73
2024/02/04 20:22:24;;;;;;;;;65.25;52.25;;;;;;;;5092410;28;8776;-74
2024/02/04 20:24:49;;;;;;;;;60.50;50.50;;;;;;;;5093918;28;12325;-72
2024/02/04 20:27:14;;;;;;;;;59.00;46.75;;;;;;;;5088740;28;8795;-74
2024/02/04 20:29:39;;;;;;;;;62.50;49.00;;;;;;;;5091966;28;8893;-75
2024/02/04 20:32:05;;;;;;;;;64.25;52.00;;;;;;;;5093988;28;8819;-73
2024/02/04 20:34:30;;;;;;;;;55.75;43.25;;;;;;;;5083998;28;8799;-74
2024/02/04 20:36:56;;;;;;;;;67.00;50.75;;;;;;;;5089034;28;8796;-72
2024/02/04 20:39:21;;;;;;;;;61.25;49.50;;;;;;;;5093803;28;8804;-71
2024/02/04 20:41:47;;;;;;;;;59.25;48.75;;;;;;;;5093712;28;8792;-74
2024/02/04 20:44:13;;;;;;;;;67.25;49.75;;;;;;;;5092506;28;8788;-72
2024/02/04 20:46:40;;;;;;;;;62.75;50.25;;;;;;;;5086503;28;8941;-71
2024/02/04 20:49:06;;;;;;;;;60.50;48.25;;;;;;;;5093382;28;8877;-73
2024/02/04 20:51:31;;;;;;;;;62.00;50.75;;;;;;;;5093400;28;11538;-72
2024/02/04 20:53:58;;;;;;;;;66.75;51.25;;;;;;;;5093326;28;10072;-71
2024/02/04 20:56:24;;;;;;;;;60.00;50.00;;;;;;;;5090268;28;8881;-71
2024/02/04 20:58:49;;;;;;;;;49.50;40.25;;;;;;;;5091903;28;11513;-72
2024/02/04 21:01:14;;;;;;;;;60.00;50.00;;;;;;;;5093253;28;9518;-72
2024/02/04 21:03:39;;;;;;;;;57.75;45.75;;;;;;;;5092850;28;8788;-72
2024/02/04 21:06:05;;;;;;;;;56.75;46.50;;;;;;;;5093235;28;8776;-72
2024/02/04 21:08:30;;;;;;;;;54.75;45.25;;;;;;;;5087798;28;8819;-72
2024/02/04 21:10:55;;;;;;;;;58.00;46.25;;;;;;;;5083397;28;8914;-71
2024/02/04 21:13:21;;;;;;;;;58.00;46.00;;;;;;;;5092992;28;8803;-72
2024/02/04 21:15:46;;;;;;;;;64.75;49.50;;;;;;;;5093142;28;8760;-72
2024/02/04 21:18:11;;;;;;;;;54.75;44.00;;;;;;;;5082097;28;8807;-72
2024/02/04 21:20:36;;;;;;;;;53.50;43.75;;;;;;;;5092600;28;9335;-72
2024/02/04 21:23:02;;;;;;;;;45.50;39.50;;;;;;;;5092187;28;9000;-72
2024/02/04 21:25:27;;;;;;;;;41.00;39.25;;;;;;;;5091173;28;9761;-73
2024/02/04 21:27:53;;;;;;;;;55.00;41.75;;;;;;;;5079822;28;8821;-73
2024/02/04 21:30:18;;;;;;;;;51.50;41.25;;;;;;;;5083042;28;9619;-74
2024/02/04 21:32:48;;;;;;;;;51.50;41.75;;;;;;;;5092816;28;8776;-73
2024/02/04 21:35:14;;;;;;;;;53.75;41.00;;;;;;;;5091708;28;9505;-73
2024/02/04 21:37:39;;;;;;;;;50.50;42.50;;;;;;;;5086272;28;11508;-73
2024/02/04 21:40:06;;;;;;;;;51.50;43.75;;;;;;;;5092594;28;8807;-73
2024/02/04 21:42:32;;;;;;;;;55.75;45.50;;;;;;;;5092253;28;8800;-73
2024/02/04 21:44:59;;;;;;;;;53.00;45.50;;;;;;;;5082338;28;11564;-73
2024/02/04 21:47:24;;;;;;;;;57.50;45.25;;;;;;;;5085496;28;8808;-73
2024/02/04 21:49:50;;;;;;;;;58.50;45.50;;;;;;;;5091828;28;11717;-73
2024/02/04 21:52:15;;;;;;;;;50.25;42.00;;;;;;;;5088196;28;8893;-73
2024/02/04 21:54:40;;;;;;;;;52.00;44.25;;;;;;;;5089786;28;9652;-74
2024/02/04 21:57:06;;;;;;;;;55.50;45.25;;;;;;;;5088583;28;8831;-73
2024/02/04 21:59:31;;;;;;;;;50.50;43.75;;;;;;;;5091005;28;8823;-73
2024/02/04 22:01:56;;;;;;;;;56.25;43.00;;;;;;;;5091886;28;8788;-73
2024/02/04 22:04:22;;;;;;;;;55.75;47.50;;;;;;;;5090358;28;9569;-72
2024/02/04 22:06:47;;;;;;;;;55.75;44.50;;;;;;;;5090744;28;9036;-72
2024/02/04 22:09:13;;;;;;;;;57.25;44.50;;;;;;;;5090861;28;8838;-71
2024/02/04 22:11:39;;;;;;;;;58.00;46.25;;;;;;;;5077128;28;8853;-73
2024/02/04 22:14:04;;;;;;;;;46.50;42.00;;;;;;;;5071977;28;8786;-73
2024/02/04 22:16:30;;;;;;;;;52.25;43.50;;;;;;;;5072814;28;11534;-74
2024/02/04 22:18:55;;;;;;;;;41.25;37.75;;;;;;;;5092122;28;8803;-73
2024/02/04 22:21:24;;;;;;;;;49.50;41.75;;;;;;;;5091981;28;8872;-73
2024/02/04 22:23:50;;;;;;;;;61.25;50.00;;;;;;;;5107858;28;8800;-73
2024/02/04 22:26:16;;;;;;;;;57.75;48.50;;;;;;;;5092069;28;11608;-71
2024/02/04 22:28:41;;;;;;;;;56.75;45.00;;;;;;;;5091620;28;11517;-72
2024/02/04 22:31:08;;;;;;;;;54.50;45.75;;;;;;;;5091948;28;8780;-71
2024/02/04 22:33:33;;;;;;;;;61.00;48.00;;;;;;;;5090340;28;8811;-72
2024/02/04 22:35:58;;;;;;;;;57.25;45.00;;;;;;;;5080962;28;11549;-72
2024/02/04 22:38:24;;;;;;;;;55.00;45.00;;;;;;;;5071523;28;8806;-72
2024/02/04 22:40:49;;;;;;;;;55.50;46.75;;;;;;;;5070213;28;8807;-72
2024/02/04 22:43:15;;;;;;;;;57.25;46.50;;;;;;;;5071479;28;11486;-71
2024/02/04 22:45:40;;;;;;;;;55.75;47.00;;;;;;;;5071404;28;8790;-71
2024/02/04 22:48:06;;;;;;;;;58.50;48.25;;;;;;;;5085446;28;8795;-72
2024/02/04 22:50:31;;;;;;;;;69.75;55.50;;;;;;;;5091617;28;8792;-71
2024/02/04 22:52:57;;;;;;;;;61.50;50.25;;;;;;;;5091664;28;8792;-71
2024/02/04 22:55:22;;;;;;;;;77.00;58.33;;;;;;;;5091699;28;8906;-71
2024/02/04 22:57:47;;;;;;;;;60.00;47.25;;;;;;;;5091470;28;9569;-71
2024/02/04 23:00:28;;;;;;;;;56.50;44.25;;;;;;;;5091491;28;8780;-72
2024/02/04 23:03:00;;;;;;;;;60.50;47.00;;;;;;;;5090162;28;8934;-72
2024/02/04 23:05:26;;;;;;;;;57.25;46.50;;;;;;;;5091185;28;11528;-72
2024/02/04 23:07:53;;;;;;;;;54.50;43.75;;;;;;;;5090043;28;12247;-72
2024/02/04 23:10:19;;;;;;;;;53.25;43.25;;;;;;;;5091163;28;11518;-72
2024/02/04 23:12:44;;;;;;;;;48.75;40.75;;;;;;;;5091122;28;11589;-71
2024/02/04 23:15:10;;;;;;;;;53.75;44.00;;;;;;;;5091176;28;8792;-71
2024/02/04 23:17:35;;;;;;;;;56.00;43.25;;;;;;;;5091064;28;8788;-71
2024/02/04 23:20:01;;;;;;;;;50.75;42.00;;;;;;;;5089699;28;9625;-71
2024/02/04 23:22:29;;;;;;;;;54.50;41.00;;;;;;;;5091066;28;8808;-71
2024/02/04 23:24:54;;;;;;;;;45.00;38.50;;;;;;;;5091117;28;8800;-71
2024/02/04 23:27:20;;;;;;;;;40.25;36.25;;;;;;;;5090915;28;11520;-72
2024/02/04 23:29:46;;;;;;;;;41.25;34.75;;;;;;;;5090974;28;8912;-71
2024/02/04 23:32:11;;;;;;;;;40.25;37.00;;;;;;;;5090690;28;11488;-71
2024/02/04 23:34:36;;;;;;;;;41.50;35.50;;;;;;;;5090853;28;8780;-72
2024/02/04 23:37:02;;;;;;;;;41.00;36.75;;;;;;;;5088178;28;8993;-71
2024/02/04 23:39:27;;;;;;;;;33.75;32.50;;;;;;;;5078329;28;8858;-72
2024/02/04 23:41:52;;;;;;;;;35.75;31.00;;;;;;;;5070742;28;8829;-72
2024/02/04 23:44:17;;;;;;;;;34.50;30.75;;;;;;;;5070507;28;8822;-72
2024/02/04 23:46:43;;;;;;;;;32.50;31.25;;;;;;;;5073431;28;8927;-72
2024/02/04 23:49:08;;;;;;;;;33.00;29.25;;;;;;;;5090459;28;8938;-72
